Time;durP1;ratioP1;P1;durP2;ratioP2;P2;SDS_P1;SDS_P2;PMS_P1;PMS_P2;Temp;Humidity;BMP_temperature;BMP_pressure;BME280_temperature;BME280_humidity;BME280_pressure;Samples;Min_cycle;Max_cycle;Signal;HPM_P1;HPM_P2
2022/03/18 00:01:08;;;;;;;36.17;30.25;;;27.30;99.90;;;;;;4143900;28;20050;-73
2022/03/18 00:03:17;;;;;;;37.55;29.02;;;27.40;99.90;;;;;;4182118;28;20048;-73
2022/03/18 00:05:22;;;;;;;37.22;29.90;;;27.40;99.90;;;;;;4182321;28;20501;-72
2022/03/18 00:07:31;;;;;;;40.33;29.35;;;27.40;99.90;;;;;;4160505;28;20041;-71
2022/03/18 00:09:38;;;;;;;33.65;27.55;;;27.40;99.90;;;;;;4158389;28;20579;-73
2022/03/18 00:11:43;;;;;;;36.65;27.85;;;27.50;99.90;;;;;;4181491;28;20079;-70
2022/03/18 00:13:49;;;;;;;33.10;27.20;;;27.60;99.90;;;;;;4157855;28;20049;-69
2022/03/18 00:15:57;;;;;;;32.00;26.25;;;27.60;99.90;;;;;;4165308;28;20403;-71
2022/03/18 00:18:02;;;;;;;28.75;23.45;;;27.70;99.90;;;;;;4166592;28;20048;-72
2022/03/18 00:20:13;;;;;;;28.50;24.48;;;27.80;99.90;;;;;;4166560;28;20049;-65
2022/03/18 00:22:21;;;;;;;31.77;23.00;;;27.70;99.90;;;;;;4165951;28;20132;-67
2022/03/18 00:24:31;;;;;;;28.63;22.77;;;27.70;99.90;;;;;;4166304;28;20111;-65
2022/03/18 00:26:40;;;;;;;24.98;21.33;;;27.70;99.90;;;;;;4166089;28;20459;-65
2022/03/18 00:28:45;;;;;;;27.67;20.63;;;27.70;99.90;;;;;;4164378;28;20048;-65
2022/03/18 00:30:52;;;;;;;24.95;19.50;;;27.60;99.90;;;;;;4166073;28;20056;-66
2022/03/18 00:33:03;;;;;;;25.35;18.90;;;27.70;99.90;;;;;;4166221;28;20054;-70
2022/03/18 00:35:16;;;;;;;26.38;18.40;;;27.60;99.90;;;;;;4166199;28;20046;-70
2022/03/18 00:37:23;;;;;;;23.52;17.42;;;27.50;99.90;;;;;;4166326;28;20041;-69
2022/03/18 00:39:34;;;;;;;22.75;17.52;;;27.70;99.90;;;;;;4166191;28;20514;-71
2022/03/18 00:41:41;;;;;;;21.67;16.85;;;27.70;99.90;;;;;;4162694;28;20614;-71
2022/03/18 00:43:49;;;;;;;19.33;15.90;;;27.70;99.90;;;;;;4165734;28;20057;-68
2022/03/18 00:45:56;;;;;;;25.27;16.90;;;27.50;99.90;;;;;;4165870;28;20038;-68
2022/03/18 00:52:44;;;;;;;19.15;14.07;;;27.70;99.90;;;;;;4164543;28;20519;-71
2022/03/18 00:54:50;;;;;;;18.60;13.90;;;27.80;99.90;;;;;;4164472;28;20109;-70
2022/03/18 00:56:55;;;;;;;17.13;14.05;;;27.90;99.90;;;;;;4165047;28;20041;-69
2022/03/18 00:59:00;;;;;;;15.75;13.40;;;27.90;99.90;;;;;;4163945;28;20121;-70
2022/03/18 01:01:06;;;;;;;18.38;11.77;;;27.90;99.90;;;;;;4174607;28;20666;-68
2022/03/18 01:03:15;;;;;;;15.45;12.77;;;27.70;99.90;;;;;;4164199;28;20042;-70
2022/03/18 01:05:28;;;;;;;17.67;12.68;;;27.70;99.90;;;;;;4146730;28;20052;-68
2022/03/18 01:07:36;;;;;;;19.92;12.32;;;27.60;99.90;;;;;;4132201;28;20058;-68
2022/03/18 01:09:43;;;;;;;17.13;12.32;;;27.50;99.90;;;;;;4166013;28;20046;-70
2022/03/18 01:11:51;;;;;;;13.98;11.30;;;27.60;99.90;;;;;;4164812;28;20156;-69
2022/03/18 01:13:57;;;;;;;16.17;12.43;;;27.50;99.90;;;;;;4171856;28;20061;-68
2022/03/18 01:16:02;;;;;;;16.55;11.50;;;27.50;99.90;;;;;;4167696;28;20095;-69
2022/03/18 01:18:11;;;;;;;15.10;11.63;;;27.70;99.90;;;;;;4172586;28;20045;-69
2022/03/18 01:20:16;;;;;;;13.68;11.38;;;27.70;99.90;;;;;;4167798;28;20045;-69
2022/03/18 01:22:22;;;;;;;12.63;11.20;;;27.80;99.90;;;;;;4156477;28;20043;-67
2022/03/18 01:24:31;;;;;;;12.85;10.75;;;27.80;99.90;;;;;;4160254;28;20050;-69
2022/03/18 01:26:36;;;;;;;14.13;10.02;;;28.00;99.90;;;;;;4189927;28;20051;-68
2022/03/18 01:28:41;;;;;;;14.35;10.30;;;28.00;99.40;;;;;;4165215;28;20042;-67
2022/03/18 01:30:49;;;;;;;16.45;10.63;;;27.90;99.40;;;;;;4158531;28;20079;-67
2022/03/18 01:32:54;;;;;;;13.98;10.70;;;27.80;99.70;;;;;;4168873;28;20411;-67
2022/03/18 01:35:00;;;;;;;14.40;10.65;;;27.90;99.60;;;;;;4171986;28;20103;-67
2022/03/18 01:37:08;;;;;;;17.35;10.15;;;28.00;98.80;;;;;;4169748;28;20107;-67
2022/03/18 01:39:13;;;;;;;12.35;9.20;;;27.90;99.00;;;;;;4162404;28;20045;-69
2022/03/18 01:41:18;;;;;;;12.68;10.50;;;27.70;99.20;;;;;;4161171;28;20471;-69
2022/03/18 01:43:27;;;;;;;15.60;10.70;;;27.80;99.10;;;;;;4156629;28;20037;-67
2022/03/18 01:45:32;;;;;;;12.45;9.88;;;27.70;99.30;;;;;;4162516;28;20049;-68
2022/03/18 01:47:42;;;;;;;13.43;9.85;;;27.70;99.00;;;;;;4153881;28;20049;-68
2022/03/18 01:49:53;;;;;;;11.23;10.00;;;27.70;99.10;;;;;;4157665;28;20041;-68
2022/03/18 01:51:57;;;;;;;14.32;9.20;;;27.90;99.40;;;;;;4158202;28;20050;-67
2022/03/18 01:56:23;;;;;;;14.60;9.65;;;27.90;99.10;;;;;;4156408;28;20057;-68
2022/03/18 01:58:28;;;;;;;12.10;9.13;;;27.90;99.00;;;;;;4153254;28;20057;-68
2022/03/18 02:00:36;;;;;;;14.68;9.57;;;28.00;99.00;;;;;;4157080;28;20041;-70
2022/03/18 02:02:43;;;;;;;12.35;9.93;;;28.10;99.20;;;;;;4153359;28;20038;-70
2022/03/18 02:04:50;;;;;;;13.07;9.45;;;28.00;98.60;;;;;;4150015;28;20053;-68
2022/03/18 02:06:56;;;;;;;12.93;9.45;;;28.00;98.50;;;;;;4154016;28;20049;-69
2022/03/18 02:09:05;;;;;;;13.45;9.50;;;28.00;98.70;;;;;;4170003;28;20191;-69
2022/03/18 02:11:13;;;;;;;18.27;9.68;;;28.10;98.40;;;;;;4160695;28;20044;-65
2022/03/18 02:13:18;;;;;;;12.93;9.80;;;28.20;98.40;;;;;;4161068;28;20500;-67
2022/03/18 02:15:27;;;;;;;10.57;9.25;;;28.20;98.30;;;;;;4152248;28;20057;-68
2022/03/18 02:17:32;;;;;;;17.23;9.48;;;28.10;98.00;;;;;;4153485;28;20056;-68
2022/03/18 02:19:41;;;;;;;17.98;9.20;;;28.10;97.90;;;;;;4147817;28;20049;-67
2022/03/18 02:21:55;;;;;;;13.45;9.00;;;28.20;98.00;;;;;;4146516;28;20053;-68
2022/03/18 02:24:17;;;;;;;14.57;9.75;;;28.40;97.90;;;;;;4147504;28;20077;-67
2022/03/18 02:26:23;;;;;;;14.98;9.48;;;28.50;97.80;;;;;;4162325;28;20053;-67
2022/03/18 02:28:32;;;;;;;12.27;9.63;;;28.40;97.00;;;;;;4164447;28;20052;-67
2022/03/18 02:30:37;;;;;;;16.02;9.23;;;28.20;97.30;;;;;;4160807;28;20117;-68
2022/03/18 02:32:42;;;;;;;10.55;8.50;;;28.30;97.40;;;;;;4160160;28;20428;-68
2022/03/18 02:34:48;;;;;;;16.00;9.70;;;28.50;97.20;;;;;;4158409;28;20506;-68
2022/03/18 02:36:53;;;;;;;13.20;9.10;;;28.50;97.30;;;;;;4159241;28;20132;-68
2022/03/18 02:38:58;;;;;;;10.65;9.05;;;28.50;96.80;;;;;;4162760;28;20049;-68
2022/03/18 02:41:08;;;;;;;13.68;9.18;;;28.40;97.00;;;;;;4156574;28;20391;-69
2022/03/18 02:43:13;;;;;;;15.80;9.82;;;28.30;96.80;;;;;;4154952;28;20057;-66
2022/03/18 02:45:18;;;;;;;12.30;9.70;;;28.30;97.30;;;;;;4154958;28;20107;-68
2022/03/18 02:47:26;;;;;;;14.30;10.10;;;28.50;97.30;;;;;;4156497;28;20068;-68
2022/03/18 02:49:31;;;;;;;17.42;9.20;;;28.60;96.90;;;;;;4164072;28;20628;-69
2022/03/18 02:51:37;;;;;;;15.00;10.48;;;28.70;95.90;;;;;;4140908;28;20042;-69
2022/03/18 02:53:46;;;;;;;12.32;8.90;;;28.60;96.20;;;;;;4149310;28;20370;-69
2022/03/18 02:55:54;;;;;;;11.15;9.30;;;28.70;96.40;;;;;;4184282;28;20052;-68
2022/03/18 02:57:59;;;;;;;18.50;9.18;;;28.80;96.10;;;;;;4159214;28;20057;-67
2022/03/18 03:00:06;;;;;;;11.23;9.32;;;28.80;96.10;;;;;;4159623;28;20065;-66
2022/03/18 03:02:15;;;;;;;12.18;9.32;;;28.60;95.80;;;;;;4161373;28;20504;-67
2022/03/18 03:04:22;;;;;;;12.93;9.38;;;28.70;96.10;;;;;;4157589;28;20052;-67
2022/03/18 03:08:54;;;;;;;14.52;10.00;;;28.90;95.90;;;;;;4160904;28;20065;-67
2022/03/18 03:10:59;;;;;;;17.30;10.80;;;29.00;95.60;;;;;;4160505;28;20092;-70
2022/03/18 03:13:11;;;;;;;18.45;11.02;;;29.30;96.00;;;;;;4169214;28;20052;-68
2022/03/18 03:15:20;;;;;;;13.73;10.63;;;29.30;95.50;;;;;;4186751;28;20538;-68
2022/03/18 03:17:29;;;;;;;12.23;9.18;;;29.30;95.20;;;;;;4144943;28;20038;-67
2022/03/18 03:19:35;;;;;;;13.00;10.02;;;29.30;94.30;;;;;;4159772;28;20065;-66
2022/03/18 03:21:40;;;;;;;15.00;9.60;;;29.40;94.90;;;;;;4161224;28;20099;-67
2022/03/18 03:23:48;;;;;;;15.98;10.38;;;29.30;95.30;;;;;;4158102;28;20081;-67
2022/03/18 03:25:57;;;;;;;15.48;9.80;;;29.30;95.20;;;;;;4160907;28;20438;-68
2022/03/18 03:28:03;;;;;;;13.45;8.55;;;29.30;95.20;;;;;;4158661;28;20601;-68
2022/03/18 03:30:15;;;;;;;16.20;8.70;;;29.40;95.20;;;;;;4154221;28;20045;-68
2022/03/18 03:32:21;;;;;;;;;;;29.30;94.40;;;;;;4175688;28;20057;-68
2022/03/18 03:34:32;;;;;;;13.20;9.02;;;29.30;94.40;;;;;;4108906;28;20421;-68
2022/03/18 03:36:39;;;;;;;12.15;9.00;;;29.50;94.60;;;;;;4168870;28;20057;-69
2022/03/18 03:38:44;;;;;;;12.63;9.00;;;29.50;94.70;;;;;;4164932;28;20111;-70
2022/03/18 03:40:50;;;;;;;12.93;8.18;;;29.50;94.50;;;;;;4171347;28;20049;-67
2022/03/18 03:42:58;;;;;;;10.00;8.02;;;29.50;94.60;;;;;;4162865;28;20057;-69
2022/03/18 03:45:06;;;;;;;10.43;7.57;;;29.50;93.80;;;;;;4162799;28;20507;-69
2022/03/18 03:47:12;;;;;;;9.25;7.65;;;29.80;94.50;;;;;;4163024;28;20045;-68
2022/03/18 03:49:19;;;;;;;12.00;7.88;;;29.80;93.40;;;;;;4160771;28;20045;-70
2022/03/18 03:51:27;;;;;;;9.45;8.32;;;29.70;93.50;;;;;;4145545;28;20579;-69
2022/03/18 03:53:32;;;;;;;11.13;7.95;;;29.80;93.80;;;;;;4160945;28;20076;-69
2022/03/18 03:55:40;;;;;;;13.48;8.18;;;29.80;94.10;;;;;;4162372;28;20046;-70
2022/03/18 03:57:47;;;;;;;14.70;8.00;;;29.80;94.10;;;;;;4162452;28;20045;-68
2022/03/18 03:59:52;;;;;;;15.02;8.77;;;29.80;93.70;;;;;;4166509;28;20032;-69
2022/03/18 04:01:59;;;;;;;13.85;9.35;;;29.70;93.60;;;;;;4165151;28;20037;-68
2022/03/18 04:04:08;;;;;;;14.35;9.02;;;29.70;94.20;;;;;;4165693;28;20103;-69
2022/03/18 04:06:13;;;;;;;13.30;8.98;;;29.90;94.50;;;;;;4166776;28;20041;-67
2022/03/18 04:08:20;;;;;;;13.27;9.13;;;29.70;94.30;;;;;;4166748;28;20052;-69
2022/03/18 04:10:28;;;;;;;12.48;9.05;;;29.80;94.40;;;;;;4163062;28;20041;-68
2022/03/18 04:12:33;;;;;;;13.13;9.68;;;29.90;94.30;;;;;;4149240;28;20165;-69
2022/03/18 04:14:42;;;;;;;12.13;9.13;;;29.90;94.10;;;;;;4165613;28;20045;-67
2022/03/18 04:16:49;;;;;;;16.27;10.90;;;30.00;94.30;;;;;;4161885;28;20061;-69
2022/03/18 04:18:53;;;;;;;17.50;10.32;;;29.80;93.70;;;;;;4166422;28;20053;-68
2022/03/18 04:21:00;;;;;;;18.80;10.10;;;29.90;94.30;;;;;;4161264;28;20053;-68
2022/03/18 04:23:08;;;;;;;12.45;9.68;;;30.10;94.00;;;;;;4164308;28;20045;-67
2022/03/18 04:25:13;;;;;;;16.83;9.75;;;30.20;93.90;;;;;;4163206;28;20103;-67
2022/03/18 04:27:21;;;;;;;12.95;9.02;;;30.30;93.50;;;;;;4162112;28;20553;-67
2022/03/18 04:29:28;;;;;;;11.25;8.75;;;30.30;93.40;;;;;;4164111;28;20045;-69
2022/03/18 04:31:32;;;;;;;12.18;8.75;;;30.50;93.70;;;;;;4164961;28;20034;-67
2022/03/18 04:33:41;;;;;;;12.98;8.57;;;30.60;93.20;;;;;;4189268;28;20116;-69
2022/03/18 04:35:49;;;;;;;15.10;9.05;;;30.60;93.00;;;;;;4163148;28;20045;-69
2022/03/18 04:37:53;;;;;;;14.20;10.15;;;30.50;93.50;;;;;;4163484;28;20048;-69
2022/03/18 04:40:02;;;;;;;11.82;9.20;;;30.50;93.30;;;;;;4154417;28;20087;-68
2022/03/18 04:42:10;;;;;;;16.95;10.30;;;30.60;93.00;;;;;;4160205;28;20479;-68
2022/03/18 04:44:15;;;;;;;14.02;9.68;;;30.90;92.50;;;;;;4174016;28;20041;-69
2022/03/18 04:46:23;;;;;;;11.82;8.70;;;30.90;92.50;;;;;;4160041;28;20399;-69
2022/03/18 04:48:30;;;;;;;15.75;9.57;;;30.60;91.70;;;;;;4159133;28;20049;-68
2022/03/18 04:50:35;;;;;;;16.33;9.32;;;30.50;92.30;;;;;;4157811;28;20034;-68
2022/03/18 04:52:42;;;;;;;14.65;8.93;;;30.80;92.20;;;;;;4165207;28;20072;-67
2022/03/18 04:54:48;;;;;;;12.02;9.23;;;30.80;92.00;;;;;;4153945;28;20137;-68
2022/03/18 04:59:12;;;;;;;16.25;9.50;;;30.70;91.70;;;;;;4164985;28;20054;-68
2022/03/18 05:01:20;;;;;;;15.27;9.27;;;30.60;92.00;;;;;;4165378;28;20052;-69
2022/03/18 05:03:25;;;;;;;13.48;9.40;;;30.80;92.60;;;;;;4160549;28;20085;-69
2022/03/18 05:05:32;;;;;;;13.70;8.98;;;30.90;91.50;;;;;;4157904;28;20101;-68
2022/03/18 05:07:39;;;;;;;15.35;9.30;;;30.70;91.80;;;;;;4189506;28;20148;-69
2022/03/18 05:09:45;;;;;;;12.85;9.35;;;30.60;91.80;;;;;;4157277;28;20064;-68
2022/03/18 05:11:52;;;;;;;18.00;9.43;;;30.60;91.90;;;;;;4166268;28;20053;-68
2022/03/18 05:13:59;;;;;;;17.25;9.10;;;30.50;92.10;;;;;;4128617;28;20048;-70
2022/03/18 05:16:06;;;;;;;12.45;8.68;;;30.50;92.10;;;;;;4164676;28;20061;-69
2022/03/18 05:18:12;;;;;;;13.55;9.20;;;30.50;92.00;;;;;;4167285;28;20046;-68
2022/03/18 05:20:21;;;;;;;11.15;8.32;;;30.50;92.40;;;;;;4168022;28;20542;-70
2022/03/18 05:22:25;;;;;;;16.15;9.50;;;30.50;92.50;;;;;;4170986;28;20098;-70
2022/03/18 05:24:32;;;;;;;10.18;8.20;;;30.40;92.10;;;;;;4162066;28;20742;-69
2022/03/18 05:26:37;;;;;;;13.43;8.85;;;30.30;92.60;;;;;;4187805;28;20040;-69
2022/03/18 05:28:43;;;;;;;12.85;8.63;;;30.20;92.80;;;;;;4157325;28;20046;-68
2022/03/18 05:30:50;;;;;;;12.18;8.82;;;30.20;92.80;;;;;;4160372;28;20045;-69
2022/03/18 05:32:57;;;;;;;13.13;9.52;;;30.20;93.20;;;;;;4161944;28;20077;-69
2022/03/18 05:35:03;;;;;;;15.32;10.02;;;30.00;93.40;;;;;;4161376;28;20058;-68
2022/03/18 05:37:10;;;;;;;15.85;9.63;;;29.90;93.30;;;;;;4158895;28;20121;-68
2022/03/18 05:39:17;;;;;;;14.45;9.77;;;29.90;93.60;;;;;;4160618;28;20072;-68
2022/03/18 05:41:24;;;;;;;12.95;9.80;;;29.80;93.60;;;;;;4190045;28;20076;-68
2022/03/18 05:43:31;;;;;;;12.98;9.88;;;29.80;93.50;;;;;;4165196;28;20092;-69
2022/03/18 05:45:39;;;;;;;13.88;10.30;;;29.70;93.40;;;;;;4164681;28;20132;-67
2022/03/18 05:47:44;;;;;;;15.00;10.20;;;29.70;93.50;;;;;;4160003;28;20038;-69
2022/03/18 05:49:51;;;;;;;18.50;12.00;;;29.60;93.70;;;;;;4180090;28;20057;-70
2022/03/18 05:51:58;;;;;;;16.10;11.02;;;29.60;93.40;;;;;;4164179;28;20422;-68
2022/03/18 05:54:03;;;;;;;15.85;10.20;;;29.50;93.90;;;;;;4161790;28;20034;-68
2022/03/18 05:58:26;;;;;;;14.32;10.50;;;29.40;94.00;;;;;;4144299;28;20624;-68
2022/03/18 06:00:31;;;;;;;15.27;10.70;;;29.40;93.80;;;;;;4096232;29;20714;-68
2022/03/18 06:02:38;;;;;;;15.48;10.10;;;29.40;94.00;;;;;;4108813;28;20094;-68
2022/03/18 06:04:45;;;;;;;15.98;10.30;;;29.40;94.10;;;;;;4113469;28;20525;-69
2022/03/18 06:06:49;;;;;;;15.10;10.43;;;29.50;94.10;;;;;;4097031;29;20040;-68
2022/03/18 06:13:32;;;;;;;17.02;10.70;;;29.40;94.00;;;;;;4111965;28;20054;-68
2022/03/18 06:15:38;;;;;;;18.60;12.70;;;29.30;94.50;;;;;;4113929;28;20050;-70
2022/03/18 06:17:43;;;;;;;34.35;24.85;;;29.30;94.50;;;;;;4112575;28;20043;-70
2022/03/18 06:19:48;;;;;;;24.17;17.40;;;29.30;95.20;;;;;;4113454;28;20385;-69
2022/03/18 06:21:53;;;;;;;20.52;16.38;;;29.30;94.90;;;;;;4111321;28;20086;-69
2022/03/18 06:23:58;;;;;;;28.10;19.73;;;29.40;95.10;;;;;;4112552;28;20055;-70
2022/03/18 06:26:03;;;;;;;21.45;14.82;;;29.30;95.30;;;;;;4077417;29;20060;-69
2022/03/18 06:28:10;;;;;;;17.92;12.18;;;29.30;95.40;;;;;;4103638;28;20042;-70
2022/03/18 06:30:16;;;;;;;16.25;11.75;;;29.30;95.60;;;;;;4127612;28;20042;-69
2022/03/18 06:32:21;;;;;;;16.63;11.43;;;29.30;95.90;;;;;;4152988;28;20617;-68
2022/03/18 06:34:29;;;;;;;16.27;11.50;;;29.30;96.50;;;;;;4154162;28;20041;-70
2022/03/18 06:36:36;;;;;;;15.45;12.25;;;29.40;96.60;;;;;;4163735;28;20407;-69
2022/03/18 06:38:42;;;;;;;14.52;11.27;;;29.40;96.50;;;;;;4178077;28;20128;-70
2022/03/18 06:40:49;;;;;;;13.25;10.70;;;29.30;96.70;;;;;;4163003;28;20124;-69
2022/03/18 06:42:56;;;;;;;17.85;11.90;;;29.30;96.60;;;;;;4158585;28;20500;-68
2022/03/18 06:45:01;;;;;;;22.40;12.52;;;29.30;96.90;;;;;;4155836;28;20048;-68
2022/03/18 06:47:09;;;;;;;21.52;12.95;;;29.20;97.00;;;;;;4159451;28;20536;-69
2022/03/18 06:49:16;;;;;;;19.77;12.85;;;29.30;97.10;;;;;;4160905;28;20129;-69
2022/03/18 06:51:22;;;;;;;24.13;13.13;;;29.20;97.30;;;;;;4161838;28;20212;-69
2022/03/18 06:53:32;;;;;;;20.63;13.40;;;29.20;98.10;;;;;;4163178;28;20041;-70
2022/03/18 06:55:39;;;;;;;20.92;14.27;;;29.20;98.50;;;;;;4194359;28;20052;-68
2022/03/18 06:57:45;;;;;;;17.33;13.07;;;29.20;98.70;;;;;;4178965;28;20515;-69
2022/03/18 06:59:51;;;;;;;18.88;13.35;;;29.20;98.70;;;;;;4171190;28;20045;-69
2022/03/18 07:01:59;;;;;;;21.42;14.93;;;29.20;98.90;;;;;;4159583;28;20049;-69
2022/03/18 07:04:04;;;;;;;19.35;14.25;;;29.20;99.20;;;;;;4159110;28;20088;-69
2022/03/18 07:06:12;;;;;;;20.52;13.82;;;29.10;99.20;;;;;;4165309;28;20546;-70
2022/03/18 07:08:17;;;;;;;17.80;13.43;;;29.10;99.10;;;;;;4165098;28;20465;-69
2022/03/18 07:10:22;;;;;;;16.00;12.73;;;29.10;99.00;;;;;;4168438;28;20156;-69
2022/03/18 07:12:29;;;;;;;18.70;14.25;;;29.10;98.90;;;;;;4164296;28;20041;-70
2022/03/18 07:14:36;;;;;;;16.98;14.40;;;29.10;99.10;;;;;;4116021;28;20047;-69
2022/03/18 07:19:01;;;;;;;23.00;15.00;;;29.10;98.80;;;;;;4163119;28;20041;-70
2022/03/18 07:21:08;;;;;;;19.00;15.30;;;29.10;98.90;;;;;;4154426;28;20053;-70
2022/03/18 07:23:14;;;;;;;21.98;15.23;;;29.10;98.80;;;;;;4164820;28;20107;-69
2022/03/18 07:25:27;;;;;;;19.52;15.60;;;29.10;99.10;;;;;;4108885;28;20082;-66
2022/03/18 07:27:33;;;;;;;21.13;14.63;;;29.10;99.30;;;;;;4162936;28;20045;-68
2022/03/18 07:29:40;;;;;;;18.67;14.68;;;29.10;99.30;;;;;;4170839;28;20053;-68
2022/03/18 07:31:47;;;;;;;22.35;14.95;;;29.10;99.90;;;;;;4171552;28;20037;-69
2022/03/18 07:33:54;;;;;;;21.23;14.65;;;29.10;99.90;;;;;;4135389;28;20385;-69
2022/03/18 07:35:58;;;;;;;19.02;13.77;;;29.10;99.90;;;;;;4171710;28;20338;-69
2022/03/18 07:38:08;;;;;;;15.85;13.68;;;29.10;99.90;;;;;;4174260;28;20063;-68
2022/03/18 07:40:17;;;;;;;20.85;13.82;;;29.10;99.90;;;;;;4172109;28;20061;-69
2022/03/18 07:42:22;;;;;;;22.10;14.50;;;29.00;99.90;;;;;;4167527;28;20157;-70
2022/03/18 07:44:28;;;;;;;22.00;14.48;;;29.00;99.90;;;;;;4171464;28;20053;-70
2022/03/18 07:46:37;;;;;;;18.35;14.63;;;29.10;99.90;;;;;;4167762;28;20084;-71
2022/03/18 07:48:44;;;;;;;20.20;13.88;;;29.10;99.90;;;;;;4169668;28;20045;-71
2022/03/18 07:50:49;;;;;;;20.00;14.63;;;29.00;99.90;;;;;;4169465;28;20061;-71
2022/03/18 07:53:15;;;;;;;20.08;15.25;;;29.00;99.90;;;;;;4172747;28;20056;-70
2022/03/18 07:55:20;;;;;;;20.58;14.90;;;29.00;99.90;;;;;;4167505;28;20446;-71
2022/03/18 07:57:27;;;;;;;18.38;15.48;;;29.00;99.90;;;;;;4167534;28;20140;-71
2022/03/18 07:59:34;;;;;;;21.38;15.45;;;29.00;99.90;;;;;;4168972;28;20046;-69
2022/03/18 08:01:40;;;;;;;19.15;15.65;;;29.00;99.90;;;;;;4173691;28;20060;-71
2022/03/18 08:03:45;;;;;;;20.40;15.98;;;28.90;99.90;;;;;;4173609;28;20056;-69
2022/03/18 08:05:50;;;;;;;21.27;16.15;;;29.00;99.90;;;;;;4178327;28;20037;-70
2022/03/18 08:07:55;;;;;;;23.52;16.90;;;28.90;99.90;;;;;;4148131;28;20125;-72
2022/03/18 08:10:00;;;;;;;22.05;17.33;;;28.90;99.90;;;;;;4147305;28;20033;-70
2022/03/18 08:12:06;;;;;;;24.00;17.80;;;29.00;99.90;;;;;;4167182;28;20046;-68
2022/03/18 08:14:10;;;;;;;22.98;17.58;;;29.00;99.90;;;;;;4149218;28;20116;-68
2022/03/18 08:16:17;;;;;;;26.60;17.95;;;29.00;99.90;;;;;;4157653;28;20077;-69
2022/03/18 08:18:25;;;;;;;20.83;15.98;;;29.00;99.90;;;;;;4159010;28;20080;-71
2022/03/18 08:20:29;;;;;;;18.88;15.40;;;28.90;99.90;;;;;;4146131;28;20049;-69
2022/03/18 08:22:36;;;;;;;20.58;15.90;;;29.00;99.90;;;;;;4166319;28;20107;-69
2022/03/18 08:24:42;;;;;;;18.80;15.32;;;29.00;99.90;;;;;;4160732;28;20053;-69
2022/03/18 08:26:47;;;;;;;18.75;14.98;;;28.90;99.90;;;;;;4162584;28;20064;-70
2022/03/18 08:28:54;;;;;;;20.20;14.57;;;28.90;99.90;;;;;;4160274;28;20054;-69
2022/03/18 08:31:01;;;;;;;17.15;14.15;;;28.90;99.90;;;;;;4153683;28;20045;-65
2022/03/18 08:33:06;;;;;;;16.20;14.50;;;28.90;99.90;;;;;;4166296;28;20149;-69
2022/03/18 08:35:13;;;;;;;18.10;14.23;;;28.70;99.90;;;;;;4163404;28;20443;-70
2022/03/18 08:37:56;;;;;;;22.42;15.35;;;28.80;99.90;;;;;;4186435;28;20102;-69
2022/03/18 08:39:44;;;;;;;20.50;14.95;;;28.70;99.90;;;;;;4161428;28;20683;-71
2022/03/18 08:41:50;;;;;;;20.08;14.95;;;28.70;99.90;;;;;;4156030;28;20045;-70
2022/03/18 08:43:58;;;;;;;22.73;14.98;;;28.70;99.90;;;;;;4117920;28;20387;-68
2022/03/18 08:46:04;;;;;;;20.65;15.27;;;28.70;99.90;;;;;;4158575;28;20448;-67
2022/03/18 08:48:11;;;;;;;23.35;15.77;;;28.70;99.90;;;;;;4192927;28;20466;-67
2022/03/18 08:50:24;;;;;;;21.27;15.63;;;28.70;99.90;;;;;;4151652;28;20705;-67
2022/03/18 08:52:31;;;;;;;21.20;15.93;;;28.70;99.90;;;;;;4157074;28;20504;-68
2022/03/18 08:54:42;;;;;;;26.40;18.33;;;28.60;99.90;;;;;;4160676;28;20050;-67
2022/03/18 08:56:48;;;;;;;21.45;16.27;;;28.60;99.90;;;;;;4193354;28;20064;-68
2022/03/18 08:58:52;;;;;;;19.33;16.73;;;28.50;99.90;;;;;;4162677;28;20132;-67
2022/03/18 09:00:57;;;;;;;21.42;17.23;;;28.50;99.90;;;;;;4160393;28;20563;-68
2022/03/18 09:03:02;;;;;;;20.33;16.40;;;28.50;99.90;;;;;;4162985;28;20057;-67
2022/03/18 09:05:08;;;;;;;21.75;16.25;;;28.60;99.90;;;;;;4150255;28;20038;-67
2022/03/18 09:07:15;;;;;;;20.27;16.58;;;28.50;99.90;;;;;;4178008;28;20052;-67
2022/03/18 09:09:20;;;;;;;18.17;15.27;;;28.50;99.90;;;;;;4157224;28;20043;-67
2022/03/18 09:11:24;;;;;;;19.77;15.95;;;28.60;99.90;;;;;;4163651;28;20056;-67
2022/03/18 09:13:33;;;;;;;24.02;17.67;;;28.50;99.90;;;;;;4157232;28;20132;-67
2022/03/18 09:15:40;;;;;;;21.52;16.50;;;28.50;99.90;;;;;;4163832;28;20492;-68
2022/03/18 09:17:45;;;;;;;18.13;16.10;;;28.60;99.90;;;;;;4163555;28;20057;-68
2022/03/18 09:19:51;;;;;;;23.52;17.20;;;28.60;99.90;;;;;;4153942;28;20702;-66
2022/03/18 09:22:00;;;;;;;22.25;17.55;;;28.50;99.90;;;;;;4161530;28;20068;-63
2022/03/18 09:24:05;;;;;;;25.90;17.90;;;28.50;99.90;;;;;;4164732;28;20050;-67
2022/03/18 09:26:12;;;;;;;24.42;17.08;;;28.50;99.90;;;;;;4160641;28;20045;-67
2022/03/18 09:28:16;;;;;;;22.77;17.08;;;28.50;99.90;;;;;;4150087;28;20544;-69
2022/03/18 09:30:26;;;;;;;21.08;16.52;;;28.50;99.90;;;;;;4179894;28;20059;-65
2022/03/18 09:32:33;;;;;;;21.42;16.75;;;28.50;99.90;;;;;;4164212;28;20152;-65
2022/03/18 09:34:41;;;;;;;22.13;16.38;;;28.50;99.90;;;;;;4188580;28;20090;-66
2022/03/18 09:36:45;;;;;;;21.10;16.95;;;28.50;99.90;;;;;;4157188;28;20046;-67
2022/03/18 09:38:52;;;;;;;19.40;15.40;;;28.50;99.90;;;;;;4156002;28;20046;-68
2022/03/18 09:40:57;;;;;;;16.75;14.88;;;28.50;99.90;;;;;;4163586;28;20046;-67
2022/03/18 09:43:08;;;;;;;18.95;14.65;;;28.40;99.90;;;;;;4161700;28;20045;-68
2022/03/18 09:45:15;;;;;;;19.38;15.48;;;28.30;99.90;;;;;;4164259;28;20049;-67
2022/03/18 09:47:25;;;;;;;18.48;14.45;;;28.40;99.90;;;;;;4158294;28;20045;-68
2022/03/18 09:49:30;;;;;;;18.33;15.35;;;28.40;99.90;;;;;;4164282;28;20048;-67
2022/03/18 09:51:37;;;;;;;17.90;14.85;;;28.40;99.90;;;;;;4161930;28;20057;-67
2022/03/18 09:54:02;;;;;;;19.15;15.88;;;28.40;99.90;;;;;;4162104;28;20521;-68
2022/03/18 09:56:07;;;;;;;20.00;15.90;;;28.30;99.90;;;;;;4162447;28;20049;-68
2022/03/18 09:58:14;;;;;;;21.85;16.73;;;28.40;99.90;;;;;;4162292;28;20091;-68
2022/03/18 10:00:20;;;;;;;19.73;15.30;;;28.30;99.90;;;;;;4163949;28;20072;-68
2022/03/18 10:02:33;;;;;;;17.90;14.50;;;28.30;99.90;;;;;;4163141;28;20056;-68
2022/03/18 10:04:57;;;;;;;18.55;15.02;;;28.30;99.90;;;;;;4160562;28;20042;-68
2022/03/18 10:07:12;;;;;;;17.27;13.88;;;28.30;99.90;;;;;;4164118;28;20088;-67
2022/03/18 10:09:17;;;;;;;15.32;13.70;;;28.10;99.90;;;;;;4162382;28;20073;-68
2022/03/18 10:11:26;;;;;;;18.08;14.57;;;28.10;99.90;;;;;;4112539;28;20043;-67
2022/03/18 10:13:56;;;;;;;17.27;14.02;;;28.10;99.90;;;;;;4096139;28;20051;-67
2022/03/18 10:16:01;;;;;;;17.95;15.32;;;28.20;99.90;;;;;;4128931;28;20081;-67
2022/03/18 10:18:11;;;;;;;17.42;14.38;;;28.20;99.90;;;;;;4127684;28;20047;-66
2022/03/18 10:20:34;;;;;;;16.30;14.60;;;28.20;99.90;;;;;;4126764;28;20363;-66
2022/03/18 10:22:41;;;;;;;19.00;15.13;;;28.20;99.90;;;;;;4128301;28;20054;-66
2022/03/18 10:24:46;;;;;;;20.45;16.00;;;28.10;99.90;;;;;;4135908;28;20556;-66
2022/03/18 10:26:51;;;;;;;21.10;16.52;;;28.10;99.90;;;;;;4129239;28;20046;-66
2022/03/18 10:29:00;;;;;;;18.95;15.77;;;28.10;99.90;;;;;;4140946;28;20042;-66
2022/03/18 10:31:21;;;;;;;23.02;16.25;;;28.10;99.90;;;;;;4128710;28;20670;-67
2022/03/18 10:38:41;;;;;;;19.50;13.43;;;28.00;99.90;;;;;;4126272;28;20058;-66
2022/03/18 10:40:50;;;;;;;15.45;12.75;;;28.00;99.90;;;;;;4125881;28;20066;-66
2022/03/18 10:42:59;;;;;;;14.77;12.93;;;27.90;99.90;;;;;;4123196;28;20061;-67
2022/03/18 10:45:07;;;;;;;17.15;13.50;;;28.00;99.90;;;;;;4127249;28;20675;-67
2022/03/18 10:47:30;;;;;;;16.13;12.93;;;27.90;99.90;;;;;;4121965;28;20061;-67
2022/03/18 10:49:36;;;;;;;14.60;13.02;;;27.90;99.90;;;;;;4126080;28;20105;-67
2022/03/18 10:51:44;;;;;;;20.85;13.68;;;27.90;99.90;;;;;;4126006;28;20059;-66
2022/03/18 10:53:57;;;;;;;17.77;14.18;;;27.90;99.90;;;;;;4110249;28;20047;-66
2022/03/18 10:56:08;;;;;;;17.20;13.85;;;27.90;99.90;;;;;;4093301;28;20474;-67
2022/03/18 10:58:17;;;;;;;18.50;15.10;;;27.90;99.90;;;;;;4108911;28;20179;-67
2022/03/18 11:00:25;;;;;;;19.73;16.23;;;27.90;99.90;;;;;;4094121;28;20066;-65
2022/03/18 11:02:29;;;;;;;16.58;14.82;;;27.90;99.90;;;;;;4093898;28;20094;-66
2022/03/18 11:04:34;;;;;;;19.08;14.88;;;27.90;99.90;;;;;;4109671;28;20050;-66
2022/03/18 11:06:38;;;;;;;19.65;15.27;;;27.90;99.90;;;;;;4109494;28;20073;-68
2022/03/18 11:08:45;;;;;;;17.45;14.95;;;27.90;99.90;;;;;;4109916;28;20051;-68
2022/03/18 11:13:10;;;;;;;17.95;14.10;;;27.90;99.90;;;;;;4094175;28;20054;-67
2022/03/18 11:15:17;;;;;;;18.63;14.38;;;27.90;99.90;;;;;;4134214;28;20077;-66
2022/03/18 11:17:23;;;;;;;18.55;15.85;;;27.90;99.90;;;;;;4135708;28;20089;-67